sensor_id;sensor_type;location;lat;lon;timestamp;temperature;humidity
7077;DHT22;3579;48.956;9.154;2023-11-18T00:00:23;15.60;69.30
7077;DHT22;3579;48.956;9.154;2023-11-18T00:02:50;15.60;69.30
7077;DHT22;3579;48.956;9.154;2023-11-18T00:05:16;15.60;69.30
7077;DHT22;3579;48.956;9.154;2023-11-18T00:07:42;15.60;69.30
7077;DHT22;3579;48.956;9.154;2023-11-18T00:10:08;15.70;68.80
7077;DHT22;3579;48.956;9.154;2023-11-18T00:12:35;15.60;69.30
7077;DHT22;3579;48.956;9.154;2023-11-18T00:15:05;15.70;69.30
7077;DHT22;3579;48.956;9.154;2023-11-18T00:17:31;15.60;69.30
7077;DHT22;3579;48.956;9.154;2023-11-18T00:19:58;15.60;68.70
7077;DHT22;3579;48.956;9.154;2023-11-18T00:22:24;15.60;69.20
7077;DHT22;3579;48.956;9.154;2023-11-18T00:24:50;15.60;68.70
7077;DHT22;3579;48.956;9.154;2023-11-18T00:27:18;15.60;69.20
7077;DHT22;3579;48.956;9.154;2023-11-18T00:29:44;15.60;68.70
7077;DHT22;3579;48.956;9.154;2023-11-18T00:34:37;15.60;68.70
7077;DHT22;3579;48.956;9.154;2023-11-18T00:37:03;15.60;69.20
7077;DHT22;3579;48.956;9.154;2023-11-18T00:39:29;15.60;69.30
7077;DHT22;3579;48.956;9.154;2023-11-18T00:41:55;15.60;68.70
7077;DHT22;3579;48.956;9.154;2023-11-18T00:44:22;15.60;68.70
7077;DHT22;3579;48.956;9.154;2023-11-18T00:46:48;15.60;68.70
7077;DHT22;3579;48.956;9.154;2023-11-18T00:49:14;15.60;68.70
7077;DHT22;3579;48.956;9.154;2023-11-18T00:51:40;15.60;69.30
7077;DHT22;3579;48.956;9.154;2023-11-18T00:54:09;15.50;68.60
7077;DHT22;3579;48.956;9.154;2023-11-18T00:56:35;15.60;68.70
7077;DHT22;3579;48.956;9.154;2023-11-18T00:59:01;15.60;68.70
7077;DHT22;3579;48.956;9.154;2023-11-18T01:01:28;15.60;68.70
7077;DHT22;3579;48.956;9.154;2023-11-18T01:03:54;15.60;68.70
7077;DHT22;3579;48.956;9.154;2023-11-18T01:06:20;15.60;68.70
7077;DHT22;3579;48.956;9.154;2023-11-18T01:08:47;15.60;69.20
7077;DHT22;3579;48.956;9.154;2023-11-18T01:11:19;15.60;68.70
7077;DHT22;3579;48.956;9.154;2023-11-18T01:13:54;15.60;68.70
7077;DHT22;3579;48.956;9.154;2023-11-18T01:16:20;15.50;69.10
7077;DHT22;3579;48.956;9.154;2023-11-18T01:18:46;15.50;69.80
7077;DHT22;3579;48.956;9.154;2023-11-18T01:21:13;15.50;69.20
7077;DHT22;3579;48.956;9.154;2023-11-18T01:23:39;15.50;68.60
7077;DHT22;3579;48.956;9.154;2023-11-18T01:26:11;15.50;68.60
7077;DHT22;3579;48.956;9.154;2023-11-18T01:28:38;15.50;68.60
7077;DHT22;3579;48.956;9.154;2023-11-18T01:31:09;15.50;68.60
7077;DHT22;3579;48.956;9.154;2023-11-18T01:33:36;15.50;68.60
7077;DHT22;3579;48.956;9.154;2023-11-18T01:36:04;15.50;68.60
7077;DHT22;3579;48.956;9.154;2023-11-18T01:38:30;15.50;69.20
7077;DHT22;3579;48.956;9.154;2023-11-18T01:40:56;15.50;68.60
7077;DHT22;3579;48.956;9.154;2023-11-18T01:43:23;15.50;68.60
7077;DHT22;3579;48.956;9.154;2023-11-18T01:45:49;15.50;68.60
7077;DHT22;3579;48.956;9.154;2023-11-18T01:48:15;15.50;68.60
7077;DHT22;3579;48.956;9.154;2023-11-18T01:50:41;15.50;69.10
7077;DHT22;3579;48.956;9.154;2023-11-18T01:53:09;15.50;68.60
7077;DHT22;3579;48.956;9.154;2023-11-18T01:55:36;15.50;69.90
7077;DHT22;3579;48.956;9.154;2023-11-18T01:58:04;15.50;68.60
7077;DHT22;3579;48.956;9.154;2023-11-18T02:00:37;15.50;68.60
7077;DHT22;3579;48.956;9.154;2023-11-18T02:03:05;15.50;68.60
7077;DHT22;3579;48.956;9.154;2023-11-18T02:05:32;15.50;69.10
7077;DHT22;3579;48.956;9.154;2023-11-18T02:07:59;15.50;68.60
7077;DHT22;3579;48.956;9.154;2023-11-18T02:10:27;15.50;69.10
7077;DHT22;3579;48.956;9.154;2023-11-18T02:13:04;15.50;68.60
7077;DHT22;3579;48.956;9.154;2023-11-18T02:15:34;15.50;69.10
7077;DHT22;3579;48.956;9.154;2023-11-18T02:18:06;15.50;69.10
7077;DHT22;3579;48.956;9.154;2023-11-18T02:20:36;15.50;68.60
7077;DHT22;3579;48.956;9.154;2023-11-18T02:23:04;15.50;69.10
7077;DHT22;3579;48.956;9.154;2023-11-18T02:25:33;15.50;68.60
7077;DHT22;3579;48.956;9.154;2023-11-18T02:28:00;15.40;69.00
7077;DHT22;3579;48.956;9.154;2023-11-18T02:30:26;15.40;68.50
7077;DHT22;3579;48.956;9.154;2023-11-18T02:33:02;15.50;68.60
7077;DHT22;3579;48.956;9.154;2023-11-18T02:35:36;15.50;69.10
7077;DHT22;3579;48.956;9.154;2023-11-18T02:38:04;15.40;68.40
7077;DHT22;3579;48.956;9.154;2023-11-18T02:40:39;15.50;69.10
7077;DHT22;3579;48.956;9.154;2023-11-18T02:43:07;15.50;69.00
7077;DHT22;3579;48.956;9.154;2023-11-18T02:45:36;15.50;68.60
7077;DHT22;3579;48.956;9.154;2023-11-18T02:48:06;15.40;68.40
7077;DHT22;3579;48.956;9.154;2023-11-18T02:50:32;15.40;68.40
7077;DHT22;3579;48.956;9.154;2023-11-18T02:53:01;15.50;68.50
7077;DHT22;3579;48.956;9.154;2023-11-18T02:55:28;15.40;68.40
7077;DHT22;3579;48.956;9.154;2023-11-18T02:57:54;15.50;69.10
7077;DHT22;3579;48.956;9.154;2023-11-18T03:00:20;15.40;68.40
7077;DHT22;3579;48.956;9.154;2023-11-18T03:02:50;15.40;69.00
7077;DHT22;3579;48.956;9.154;2023-11-18T03:05:21;15.40;68.90
7077;DHT22;3579;48.956;9.154;2023-11-18T03:07:47;15.40;68.90
7077;DHT22;3579;48.956;9.154;2023-11-18T03:10:21;15.40;68.90
7077;DHT22;3579;48.956;9.154;2023-11-18T03:12:52;15.40;68.40
7077;DHT22;3579;48.956;9.154;2023-11-18T03:15:19;15.40;68.40
7077;DHT22;3579;48.956;9.154;2023-11-18T03:17:49;15.40;68.90
7077;DHT22;3579;48.956;9.154;2023-11-18T03:20:16;15.40;68.30
7077;DHT22;3579;48.956;9.154;2023-11-18T03:22:43;15.40;68.30
7077;DHT22;3579;48.956;9.154;2023-11-18T03:25:11;15.40;68.90
7077;DHT22;3579;48.956;9.154;2023-11-18T03:27:40;15.40;68.30
7077;DHT22;3579;48.956;9.154;2023-11-18T03:30:07;15.40;68.90
7077;DHT22;3579;48.956;9.154;2023-11-18T03:32:35;15.40;68.90
7077;DHT22;3579;48.956;9.154;2023-11-18T03:35:05;15.40;68.90
7077;DHT22;3579;48.956;9.154;2023-11-18T03:37:38;15.40;68.80
7077;DHT22;3579;48.956;9.154;2023-11-18T03:40:11;15.40;68.90
7077;DHT22;3579;48.956;9.154;2023-11-18T03:42:39;15.40;68.30
7077;DHT22;3579;48.956;9.154;2023-11-18T03:45:06;15.40;68.80
7077;DHT22;3579;48.956;9.154;2023-11-18T03:47:32;15.40;68.30
7077;DHT22;3579;48.956;9.154;2023-11-18T03:49:59;15.40;68.80
7077;DHT22;3579;48.956;9.154;2023-11-18T03:52:25;15.40;68.40
7077;DHT22;3579;48.956;9.154;2023-11-18T03:54:53;15.40;68.30
7077;DHT22;3579;48.956;9.154;2023-11-18T03:57:21;15.40;68.30
7077;DHT22;3579;48.956;9.154;2023-11-18T03:59:47;15.40;68.30
7077;DHT22;3579;48.956;9.154;2023-11-18T04:02:13;15.40;68.80
7077;DHT22;3579;48.956;9.154;2023-11-18T04:04:39;15.40;68.30
7077;DHT22;3579;48.956;9.154;2023-11-18T04:07:05;15.40;68.90
7077;DHT22;3579;48.956;9.154;2023-11-18T04:09:32;15.40;68.30
7077;DHT22;3579;48.956;9.154;2023-11-18T04:11:58;15.30;68.20
7077;DHT22;3579;48.956;9.154;2023-11-18T04:14:24;15.40;68.30
7077;DHT22;3579;48.956;9.154;2023-11-18T04:16:51;15.40;68.90
7077;DHT22;3579;48.956;9.154;2023-11-18T04:19:18;15.40;68.30
7077;DHT22;3579;48.956;9.154;2023-11-18T04:21:44;15.40;68.30
7077;DHT22;3579;48.956;9.154;2023-11-18T04:24:14;15.40;68.30
7077;DHT22;3579;48.956;9.154;2023-11-18T04:26:41;15.40;68.30
7077;DHT22;3579;48.956;9.154;2023-11-18T04:29:07;15.30;68.20
7077;DHT22;3579;48.956;9.154;2023-11-18T04:31:33;15.30;68.20
7077;DHT22;3579;48.956;9.154;2023-11-18T04:34:00;15.30;68.20
7077;DHT22;3579;48.956;9.154;2023-11-18T04:36:26;15.40;68.30
7077;DHT22;3579;48.956;9.154;2023-11-18T04:38:52;15.30;69.40
7077;DHT22;3579;48.956;9.154;2023-11-18T04:41:18;15.30;68.70
7077;DHT22;3579;48.956;9.154;2023-11-18T04:43:44;15.30;68.30
7077;DHT22;3579;48.956;9.154;2023-11-18T04:46:11;15.30;68.20
7077;DHT22;3579;48.956;9.154;2023-11-18T04:48:37;15.30;68.20
7077;DHT22;3579;48.956;9.154;2023-11-18T04:51:03;15.30;68.20
7077;DHT22;3579;48.956;9.154;2023-11-18T04:53:30;15.30;68.20
7077;DHT22;3579;48.956;9.154;2023-11-18T04:55:57;15.30;68.20
7077;DHT22;3579;48.956;9.154;2023-11-18T04:58:24;15.30;68.20
7077;DHT22;3579;48.956;9.154;2023-11-18T05:00:50;15.30;68.20
7077;DHT22;3579;48.956;9.154;2023-11-18T05:03:16;15.30;68.20
7077;DHT22;3579;48.956;9.154;2023-11-18T05:05:42;15.30;68.70
7077;DHT22;3579;48.956;9.154;2023-11-18T05:08:18;15.30;68.20
7077;DHT22;3579;48.956;9.154;2023-11-18T05:10:48;15.30;68.80
7077;DHT22;3579;48.956;9.154;2023-11-18T05:13:15;15.30;68.20
7077;DHT22;3579;48.956;9.154;2023-11-18T05:15:43;15.30;68.20
7077;DHT22;3579;48.956;9.154;2023-11-18T05:18:13;15.30;68.30
7077;DHT22;3579;48.956;9.154;2023-11-18T05:20:43;15.30;68.80
7077;DHT22;3579;48.956;9.154;2023-11-18T05:23:09;15.30;68.80
7077;DHT22;3579;48.956;9.154;2023-11-18T05:25:42;15.30;68.80
7077;DHT22;3579;48.956;9.154;2023-11-18T05:28:11;15.30;68.20
7077;DHT22;3579;48.956;9.154;2023-11-18T05:30:38;15.20;68.10
7077;DHT22;3579;48.956;9.154;2023-11-18T05:33:05;15.20;68.70
7077;DHT22;3579;48.956;9.154;2023-11-18T05:35:32;15.30;68.80
7077;DHT22;3579;48.956;9.154;2023-11-18T05:37:59;15.30;68.80
7077;DHT22;3579;48.956;9.154;2023-11-18T05:40:26;15.20;68.70
7077;DHT22;3579;48.956;9.154;2023-11-18T05:42:54;15.20;68.20
7077;DHT22;3579;48.956;9.154;2023-11-18T05:45:21;15.20;68.80
7077;DHT22;3579;48.956;9.154;2023-11-18T05:48:10;15.20;68.70
7077;DHT22;3579;48.956;9.154;2023-11-18T05:50:36;15.20;68.20
7077;DHT22;3579;48.956;9.154;2023-11-18T05:53:02;15.20;68.20
7077;DHT22;3579;48.956;9.154;2023-11-18T05:55:29;15.20;68.70
7077;DHT22;3579;48.956;9.154;2023-11-18T05:57:55;15.20;68.80
7077;DHT22;3579;48.956;9.154;2023-11-18T06:00:21;15.20;68.70
7077;DHT22;3579;48.956;9.154;2023-11-18T06:02:50;15.20;68.20
7077;DHT22;3579;48.956;9.154;2023-11-18T06:05:17;15.20;68.80
7077;DHT22;3579;48.956;9.154;2023-11-18T06:07:43;15.20;68.20
7077;DHT22;3579;48.956;9.154;2023-11-18T06:10:09;15.20;68.30
7077;DHT22;3579;48.956;9.154;2023-11-18T06:12:35;15.20;68.90
7077;DHT22;3579;48.956;9.154;2023-11-18T06:15:03;15.10;68.10
7077;DHT22;3579;48.956;9.154;2023-11-18T06:17:29;15.10;68.10
7077;DHT22;3579;48.956;9.154;2023-11-18T06:19:55;15.10;68.70
7077;DHT22;3579;48.956;9.154;2023-11-18T06:22:21;15.10;68.20
7077;DHT22;3579;48.956;9.154;2023-11-18T06:24:47;15.10;68.20
7077;DHT22;3579;48.956;9.154;2023-11-18T06:27:13;15.10;68.20
7077;DHT22;3579;48.956;9.154;2023-11-18T06:29:39;15.10;68.20
7077;DHT22;3579;48.956;9.154;2023-11-18T06:32:06;15.10;68.20
7077;DHT22;3579;48.956;9.154;2023-11-18T06:34:33;15.10;68.20
7077;DHT22;3579;48.956;9.154;2023-11-18T06:36:59;15.10;68.70
7077;DHT22;3579;48.956;9.154;2023-11-18T06:39:25;15.10;68.70
7077;DHT22;3579;48.956;9.154;2023-11-18T06:41:58;15.10;68.80
7077;DHT22;3579;48.956;9.154;2023-11-18T06:44:24;15.10;68.80
7077;DHT22;3579;48.956;9.154;2023-11-18T06:49:17;17.60;70.80
7077;DHT22;3579;48.956;9.154;2023-11-18T06:51:44;15.10;68.80
7077;DHT22;3579;48.956;9.154;2023-11-18T06:54:10;15.10;68.80
7077;DHT22;3579;48.956;9.154;2023-11-18T06:56:40;15.10;68.70
7077;DHT22;3579;48.956;9.154;2023-11-18T06:59:10;15.10;68.20
7077;DHT22;3579;48.956;9.154;2023-11-18T07:01:41;15.10;68.10
7077;DHT22;3579;48.956;9.154;2023-11-18T07:04:09;15.20;68.10
7077;DHT22;3579;48.956;9.154;2023-11-18T07:06:36;15.20;68.10
7077;DHT22;3579;48.956;9.154;2023-11-18T07:09:08;15.20;68.60
7077;DHT22;3579;48.956;9.154;2023-11-18T07:11:47;15.20;68.00
7077;DHT22;3579;48.956;9.154;2023-11-18T07:14:14;15.20;68.60
7077;DHT22;3579;48.956;9.154;2023-11-18T07:16:43;15.30;68.60
7077;DHT22;3579;48.956;9.154;2023-11-18T07:19:10;15.30;67.90
7077;DHT22;3579;48.956;9.154;2023-11-18T07:21:40;15.40;67.90
7077;DHT22;3579;48.956;9.154;2023-11-18T07:24:07;15.40;68.40
7077;DHT22;3579;48.956;9.154;2023-11-18T07:26:33;15.40;67.70
7077;DHT22;3579;48.956;9.154;2023-11-18T07:28:59;15.40;68.30
7077;DHT22;3579;48.956;9.154;2023-11-18T07:31:25;15.50;67.70
7077;DHT22;3579;48.956;9.154;2023-11-18T07:33:51;15.50;67.60
7077;DHT22;3579;48.956;9.154;2023-11-18T07:36:18;15.50;68.10
7077;DHT22;3579;48.956;9.154;2023-11-18T07:38:47;15.50;68.00
7077;DHT22;3579;48.956;9.154;2023-11-18T07:41:13;15.50;68.00
7077;DHT22;3579;48.956;9.154;2023-11-18T07:43:50;15.50;68.00
7077;DHT22;3579;48.956;9.154;2023-11-18T07:46:17;15.50;67.40
7077;DHT22;3579;48.956;9.154;2023-11-18T07:48:43;15.50;67.90
7077;DHT22;3579;48.956;9.154;2023-11-18T07:51:09;15.60;67.30
7077;DHT22;3579;48.956;9.154;2023-11-18T07:53:35;15.60;67.90
7077;DHT22;3579;48.956;9.154;2023-11-18T07:56:04;15.60;67.20
7077;DHT22;3579;48.956;9.154;2023-11-18T07:58:31;15.60;67.70
7077;DHT22;3579;48.956;9.154;2023-11-18T08:00:57;15.70;67.10
7077;DHT22;3579;48.956;9.154;2023-11-18T08:03:25;15.60;67.60
7077;DHT22;3579;48.956;9.154;2023-11-18T08:05:51;15.60;67.00
7077;DHT22;3579;48.956;9.154;2023-11-18T08:08:17;15.70;67.60
7077;DHT22;3579;48.956;9.154;2023-11-18T08:10:43;15.70;67.50
7077;DHT22;3579;48.956;9.154;2023-11-18T08:13:11;15.70;67.00
7077;DHT22;3579;48.956;9.154;2023-11-18T08:15:43;15.70;67.00
7077;DHT22;3579;48.956;9.154;2023-11-18T08:18:11;15.70;66.90
7077;DHT22;3579;48.956;9.154;2023-11-18T08:20:37;15.70;67.50
7077;DHT22;3579;48.956;9.154;2023-11-18T08:23:03;15.70;67.50
7077;DHT22;3579;48.956;9.154;2023-11-18T08:25:33;15.70;66.80
7077;DHT22;3579;48.956;9.154;2023-11-18T08:28:03;15.70;67.40
7077;DHT22;3579;48.956;9.154;2023-11-18T08:30:33;15.70;66.80
7077;DHT22;3579;48.956;9.154;2023-11-18T08:32:59;15.70;67.40
7077;DHT22;3579;48.956;9.154;2023-11-18T08:35:25;15.70;66.70
7077;DHT22;3579;48.956;9.154;2023-11-18T08:37:51;15.70;67.20
7077;DHT22;3579;48.956;9.154;2023-11-18T08:40:18;15.70;66.70
7077;DHT22;3579;48.956;9.154;2023-11-18T08:42:52;15.70;66.60
7077;DHT22;3579;48.956;9.154;2023-11-18T08:45:21;15.80;67.30
7077;DHT22;3579;48.956;9.154;2023-11-18T08:47:55;15.80;66.70
7077;DHT22;3579;48.956;9.154;2023-11-18T08:50:22;15.70;67.10
7077;DHT22;3579;48.956;9.154;2023-11-18T08:52:52;15.80;67.20
7077;DHT22;3579;48.956;9.154;2023-11-18T08:55:24;15.80;67.10
7077;DHT22;3579;48.956;9.154;2023-11-18T08:58:04;15.80;67.10
7077;DHT22;3579;48.956;9.154;2023-11-18T09:00:42;15.80;66.50
7077;DHT22;3579;48.956;9.154;2023-11-18T09:03:15;15.90;66.50
7077;DHT22;3579;48.956;9.154;2023-11-18T09:06:06;15.90;66.40
7077;DHT22;3579;48.956;9.154;2023-11-18T09:08:47;15.80;66.90
7077;DHT22;3579;48.956;9.154;2023-11-18T09:11:19;15.90;66.40
7077;DHT22;3579;48.956;9.154;2023-11-18T09:13:49;15.90;66.90
7077;DHT22;3579;48.956;9.154;2023-11-18T09:16:22;15.90;66.90
7077;DHT22;3579;48.956;9.154;2023-11-18T09:18:49;16.00;66.30
7077;DHT22;3579;48.956;9.154;2023-11-18T09:21:16;16.00;66.80
7077;DHT22;3579;48.956;9.154;2023-11-18T09:23:51;16.00;66.70
7077;DHT22;3579;48.956;9.154;2023-11-18T09:26:17;16.10;66.10
7077;DHT22;3579;48.956;9.154;2023-11-18T09:28:43;16.10;66.60
7077;DHT22;3579;48.956;9.154;2023-11-18T09:31:12;16.10;66.50
7077;DHT22;3579;48.956;9.154;2023-11-18T09:33:40;16.20;66.30
7077;DHT22;3579;48.956;9.154;2023-11-18T09:36:11;16.20;66.20
7077;DHT22;3579;48.956;9.154;2023-11-18T09:38:39;16.20;66.20
7077;DHT22;3579;48.956;9.154;2023-11-18T09:41:09;16.20;66.20
7077;DHT22;3579;48.956;9.154;2023-11-18T09:43:40;16.20;65.60
7077;DHT22;3579;48.956;9.154;2023-11-18T09:46:23;16.20;66.10
7077;DHT22;3579;48.956;9.154;2023-11-18T09:48:51;16.30;66.10
7077;DHT22;3579;48.956;9.154;2023-11-18T09:51:27;16.20;66.10
7077;DHT22;3579;48.956;9.154;2023-11-18T09:54:01;16.30;65.70
7077;DHT22;3579;48.956;9.154;2023-11-18T09:59:33;16.30;65.60
7077;DHT22;3579;48.956;9.154;2023-11-18T10:02:05;16.30;66.10
7077;DHT22;3579;48.956;9.154;2023-11-18T10:04:37;16.30;66.10
7077;DHT22;3579;48.956;9.154;2023-11-18T10:07:08;16.30;66.00
7077;DHT22;3579;48.956;9.154;2023-11-18T10:09:36;16.30;66.10
7077;DHT22;3579;48.956;9.154;2023-11-18T10:12:07;16.30;66.00
7077;DHT22;3579;48.956;9.154;2023-11-18T10:14:34;16.30;66.00
7077;DHT22;3579;48.956;9.154;2023-11-18T10:17:05;16.30;66.00
7077;DHT22;3579;48.956;9.154;2023-11-18T10:19:51;16.30;66.70
7077;DHT22;3579;48.956;9.154;2023-11-18T10:22:22;16.30;66.00
7077;DHT22;3579;48.956;9.154;2023-11-18T10:24:49;16.30;65.40
7077;DHT22;3579;48.956;9.154;2023-11-18T10:27:22;16.30;66.00
7077;DHT22;3579;48.956;9.154;2023-11-18T10:29:49;16.30;66.00
7077;DHT22;3579;48.956;9.154;2023-11-18T10:32:17;16.30;65.90
7077;DHT22;3579;48.956;9.154;2023-11-18T10:34:47;16.30;65.80
7077;DHT22;3579;48.956;9.154;2023-11-18T10:37:16;16.30;65.20
7077;DHT22;3579;48.956;9.154;2023-11-18T10:39:51;16.30;65.80
7077;DHT22;3579;48.956;9.154;2023-11-18T10:42:18;16.30;65.70
7077;DHT22;3579;48.956;9.154;2023-11-18T10:45:02;16.40;65.90
7077;DHT22;3579;48.956;9.154;2023-11-18T10:47:33;16.40;65.70
7077;DHT22;3579;48.956;9.154;2023-11-18T10:49:59;16.40;65.80
7077;DHT22;3579;48.956;9.154;2023-11-18T10:52:27;16.50;66.60
7077;DHT22;3579;48.956;9.154;2023-11-18T10:54:57;16.40;65.90
7077;DHT22;3579;48.956;9.154;2023-11-18T10:57:24;16.50;66.00
7077;DHT22;3579;48.956;9.154;2023-11-18T11:00:06;16.40;65.90
7077;DHT22;3579;48.956;9.154;2023-11-18T11:02:45;16.40;65.90
7077;DHT22;3579;48.956;9.154;2023-11-18T11:05:28;16.50;66.10
7077;DHT22;3579;48.956;9.154;2023-11-18T11:07:58;16.50;66.10
7077;DHT22;3579;48.956;9.154;2023-11-18T11:10:25;16.50;65.50
7077;DHT22;3579;48.956;9.154;2023-11-18T11:12:55;16.50;66.10
7077;DHT22;3579;48.956;9.154;2023-11-18T11:15:31;16.50;66.00
7077;DHT22;3579;48.956;9.154;2023-11-18T11:18:20;16.50;66.00
7077;DHT22;3579;48.956;9.154;2023-11-18T11:21:01;16.50;66.00
7077;DHT22;3579;48.956;9.154;2023-11-18T11:29:25;16.50;65.60
7077;DHT22;3579;48.956;9.154;2023-11-18T11:34:53;16.50;66.10
7077;DHT22;3579;48.956;9.154;2023-11-18T11:37:21;16.50;66.00
7077;DHT22;3579;48.956;9.154;2023-11-18T11:39:51;16.50;66.00
7077;DHT22;3579;48.956;9.154;2023-11-18T11:42:20;16.50;66.00
7077;DHT22;3579;48.956;9.154;2023-11-18T11:44:49;16.50;66.00
7077;DHT22;3579;48.956;9.154;2023-11-18T11:47:15;16.50;66.00
7077;DHT22;3579;48.956;9.154;2023-11-18T11:49:55;16.50;66.00
7077;DHT22;3579;48.956;9.154;2023-11-18T11:52:33;16.50;65.90
7077;DHT22;3579;48.956;9.154;2023-11-18T11:57:32;16.50;66.00
7077;DHT22;3579;48.956;9.154;2023-11-18T12:00:09;16.50;65.40
7077;DHT22;3579;48.956;9.154;2023-11-18T12:02:51;16.50;65.50
7077;DHT22;3579;48.956;9.154;2023-11-18T12:05:23;16.50;66.00
7077;DHT22;3579;48.956;9.154;2023-11-18T12:07:55;16.50;66.00
7077;DHT22;3579;48.956;9.154;2023-11-18T12:10:26;16.60;65.60
7077;DHT22;3579;48.956;9.154;2023-11-18T12:13:07;16.50;66.00
7077;DHT22;3579;48.956;9.154;2023-11-18T12:15:50;16.50;66.10
7077;DHT22;3579;48.956;9.154;2023-11-18T12:18:21;16.50;65.60
7077;DHT22;3579;48.956;9.154;2023-11-18T12:20:47;16.50;66.10
7077;DHT22;3579;48.956;9.154;2023-11-18T12:23:16;16.50;66.10
7077;DHT22;3579;48.956;9.154;2023-11-18T12:25:44;16.50;66.10
7077;DHT22;3579;48.956;9.154;2023-11-18T12:28:24;16.50;66.20
7077;DHT22;3579;48.956;9.154;2023-11-18T12:30:56;16.50;66.20
7077;DHT22;3579;48.956;9.154;2023-11-18T12:33:23;16.50;66.20
7077;DHT22;3579;48.956;9.154;2023-11-18T12:38:50;16.50;66.30
7077;DHT22;3579;48.956;9.154;2023-11-18T12:41:38;16.50;66.30
7077;DHT22;3579;48.956;9.154;2023-11-18T12:47:00;16.50;66.30
7077;DHT22;3579;48.956;9.154;2023-11-18T12:49:47;16.50;66.30
7077;DHT22;3579;48.956;9.154;2023-11-18T12:52:21;16.50;65.70
7077;DHT22;3579;48.956;9.154;2023-11-18T12:54:48;16.50;66.30
7077;DHT22;3579;48.956;9.154;2023-11-18T12:57:19;16.50;66.30
7077;DHT22;3579;48.956;9.154;2023-11-18T12:59:49;16.50;65.80
7077;DHT22;3579;48.956;9.154;2023-11-18T13:02:16;16.50;66.30
7077;DHT22;3579;48.956;9.154;2023-11-18T13:04:49;16.50;66.40
7077;DHT22;3579;48.956;9.154;2023-11-18T13:07:16;16.40;65.80
7077;DHT22;3579;48.956;9.154;2023-11-18T13:09:50;16.40;67.00
7077;DHT22;3579;48.956;9.154;2023-11-18T13:12:17;16.40;66.40
7077;DHT22;3579;48.956;9.154;2023-11-18T13:14:46;16.40;65.90
7077;DHT22;3579;48.956;9.154;2023-11-18T13:17:14;16.40;65.90
7077;DHT22;3579;48.956;9.154;2023-11-18T13:19:44;16.40;66.40
7077;DHT22;3579;48.956;9.154;2023-11-18T13:22:11;16.40;66.50
7077;DHT22;3579;48.956;9.154;2023-11-18T13:24:39;16.40;66.50
7077;DHT22;3579;48.956;9.154;2023-11-18T13:27:07;16.40;66.50
7077;DHT22;3579;48.956;9.154;2023-11-18T13:29:38;16.40;66.50
7077;DHT22;3579;48.956;9.154;2023-11-18T13:32:10;16.40;66.10
7077;DHT22;3579;48.956;9.154;2023-11-18T13:34:37;16.40;66.70
7077;DHT22;3579;48.956;9.154;2023-11-18T13:37:06;16.40;66.70
7077;DHT22;3579;48.956;9.154;2023-11-18T13:39:33;16.40;66.70
7077;DHT22;3579;48.956;9.154;2023-11-18T13:42:22;16.40;66.70
7077;DHT22;3579;48.956;9.154;2023-11-18T13:44:49;16.40;66.80
7077;DHT22;3579;48.956;9.154;2023-11-18T13:47:20;16.40;66.80
7077;DHT22;3579;48.956;9.154;2023-11-18T13:49:49;16.30;66.70
7077;DHT22;3579;48.956;9.154;2023-11-18T13:52:17;16.40;66.30
7077;DHT22;3579;48.956;9.154;2023-11-18T13:54:44;16.30;66.80
7077;DHT22;3579;48.956;9.154;2023-11-18T13:57:12;16.30;66.30
7077;DHT22;3579;48.956;9.154;2023-11-18T13:59:39;16.40;66.90
7077;DHT22;3579;48.956;9.154;2023-11-18T14:02:05;16.30;66.80
7077;DHT22;3579;48.956;9.154;2023-11-18T14:04:33;16.30;66.90
7077;DHT22;3579;48.956;9.154;2023-11-18T14:07:01;16.30;66.40
7077;DHT22;3579;48.956;9.154;2023-11-18T14:09:29;16.30;66.40
7077;DHT22;3579;48.956;9.154;2023-11-18T14:11:56;16.30;66.40
7077;DHT22;3579;48.956;9.154;2023-11-18T14:14:25;16.30;67.00
7077;DHT22;3579;48.956;9.154;2023-11-18T14:16:53;16.30;67.00
7077;DHT22;3579;48.956;9.154;2023-11-18T14:19:23;16.30;67.00
7077;DHT22;3579;48.956;9.154;2023-11-18T14:21:54;16.30;66.50
7077;DHT22;3579;48.956;9.154;2023-11-18T14:24:20;16.30;67.00
7077;DHT22;3579;48.956;9.154;2023-11-18T14:26:49;16.30;67.00
7077;DHT22;3579;48.956;9.154;2023-11-18T14:29:16;16.30;67.10
7077;DHT22;3579;48.956;9.154;2023-11-18T14:31:42;16.30;67.10
7077;DHT22;3579;48.956;9.154;2023-11-18T14:34:09;16.30;67.10
7077;DHT22;3579;48.956;9.154;2023-11-18T14:36:39;16.30;67.10
7077;DHT22;3579;48.956;9.154;2023-11-18T14:39:05;16.20;67.00
7077;DHT22;3579;48.956;9.154;2023-11-18T14:41:36;16.30;67.10
7077;DHT22;3579;48.956;9.154;2023-11-18T14:44:02;16.20;67.00
7077;DHT22;3579;48.956;9.154;2023-11-18T14:46:30;16.20;67.00
7077;DHT22;3579;48.956;9.154;2023-11-18T14:48:59;16.20;67.00
7077;DHT22;3579;48.956;9.154;2023-11-18T14:51:25;16.20;66.50
7077;DHT22;3579;48.956;9.154;2023-11-18T14:53:51;16.20;67.10
7077;DHT22;3579;48.956;9.154;2023-11-18T14:56:17;16.30;66.70
7077;DHT22;3579;48.956;9.154;2023-11-18T14:58:44;16.20;66.60
7077;DHT22;3579;48.956;9.154;2023-11-18T15:01:15;16.20;66.60
7077;DHT22;3579;48.956;9.154;2023-11-18T15:03:44;16.20;67.20
7077;DHT22;3579;48.956;9.154;2023-11-18T15:06:11;16.20;66.70
7077;DHT22;3579;48.956;9.154;2023-11-18T15:08:38;16.20;66.70
7077;DHT22;3579;48.956;9.154;2023-11-18T15:11:07;16.20;67.30
7077;DHT22;3579;48.956;9.154;2023-11-18T15:13:33;16.20;66.80
7077;DHT22;3579;48.956;9.154;2023-11-18T15:15:59;16.20;67.30
7077;DHT22;3579;48.956;9.154;2023-11-18T15:18:25;16.20;66.80
7077;DHT22;3579;48.956;9.154;2023-11-18T15:20:51;16.20;66.80
7077;DHT22;3579;48.956;9.154;2023-11-18T15:23:18;16.20;67.40
7077;DHT22;3579;48.956;9.154;2023-11-18T15:25:47;16.10;67.30
7077;DHT22;3579;48.956;9.154;2023-11-18T15:28:16;16.20;67.40
7077;DHT22;3579;48.956;9.154;2023-11-18T15:30:44;16.10;67.40
7077;DHT22;3579;48.956;9.154;2023-11-18T15:33:11;16.10;66.90
7077;DHT22;3579;48.956;9.154;2023-11-18T15:35:39;16.10;67.40
7077;DHT22;3579;48.956;9.154;2023-11-18T15:38:07;16.10;67.00
7077;DHT22;3579;48.956;9.154;2023-11-18T15:40:35;16.10;67.00
7077;DHT22;3579;48.956;9.154;2023-11-18T15:43:03;16.10;67.00
7077;DHT22;3579;48.956;9.154;2023-11-18T15:45:31;16.10;67.50
7077;DHT22;3579;48.956;9.154;2023-11-18T15:47:59;16.10;67.50
7077;DHT22;3579;48.956;9.154;2023-11-18T15:50:31;16.10;67.60
7077;DHT22;3579;48.956;9.154;2023-11-18T15:52:57;16.10;67.60
7077;DHT22;3579;48.956;9.154;2023-11-18T15:55:24;16.10;67.60
7077;DHT22;3579;48.956;9.154;2023-11-18T15:57:52;16.10;67.10
7077;DHT22;3579;48.956;9.154;2023-11-18T16:00:23;16.10;67.10
7077;DHT22;3579;48.956;9.154;2023-11-18T16:02:56;16.10;67.10
7077;DHT22;3579;48.956;9.154;2023-11-18T16:05:24;16.10;67.70
7077;DHT22;3579;48.956;9.154;2023-11-18T16:07:52;16.10;67.60
7077;DHT22;3579;48.956;9.154;2023-11-18T16:10:21;16.00;67.10
7077;DHT22;3579;48.956;9.154;2023-11-18T16:12:48;16.10;67.70
7077;DHT22;3579;48.956;9.154;2023-11-18T16:15:17;16.10;67.20
7077;DHT22;3579;48.956;9.154;2023-11-18T16:18:03;16.10;67.70
7077;DHT22;3579;48.956;9.154;2023-11-18T16:20:31;16.00;67.60
7077;DHT22;3579;48.956;9.154;2023-11-18T16:23:00;16.00;67.10
7077;DHT22;3579;48.956;9.154;2023-11-18T16:25:28;16.00;67.70
7077;DHT22;3579;48.956;9.154;2023-11-18T16:27:57;16.00;67.10
7077;DHT22;3579;48.956;9.154;2023-11-18T16:30:25;16.00;67.60
7077;DHT22;3579;48.956;9.154;2023-11-18T16:32:52;16.10;67.80
7077;DHT22;3579;48.956;9.154;2023-11-18T16:35:19;16.00;67.70
7077;DHT22;3579;48.956;9.154;2023-11-18T16:37:46;16.00;67.70